Time;durP1;ratioP1;P1;durP2;ratioP2;P2;SDS_P1;SDS_P2;PMS_P1;PMS_P2;Temp;Humidity;BMP_temperature;BMP_pressure;BME280_temperature;BME280_humidity;BME280_pressure;Samples;Min_cycle;Max_cycle;Signal;HPM_P1;HPM_P2
2024/01/28 00:02:16;;;;;;;9.00;8.20;;;8.80;99.90;;;;;;5091416;28;20028;-66
2024/01/28 00:04:41;;;;;;;8.77;7.97;;;8.80;99.90;;;;;;5091571;28;20035;-65
2024/01/28 00:07:07;;;;;;;8.30;7.50;;;8.80;99.90;;;;;;5091564;28;20020;-66
2024/01/28 00:09:32;;;;;;;8.20;7.40;;;8.80;99.90;;;;;;5091654;28;20043;-65
2024/01/28 00:11:58;;;;;;;8.52;7.72;;;8.80;99.90;;;;;;5094898;28;20437;-66
2024/01/28 00:14:24;;;;;;;7.60;6.90;;;8.80;99.90;;;;;;5095297;28;20111;-66
2024/01/28 00:16:49;;;;;;;7.32;6.72;;;8.90;99.90;;;;;;5095043;28;20008;-66
2024/01/28 00:19:15;;;;;;;6.90;6.30;;;8.90;99.90;;;;;;5095173;28;20123;-65
2024/01/28 00:21:41;;;;;;;7.32;6.63;;;8.90;99.90;;;;;;5095046;28;20103;-65
2024/01/28 00:24:07;;;;;;;7.03;6.35;;;8.90;99.90;;;;;;5095006;28;20078;-67
2024/01/28 00:26:41;;;;;;;7.20;6.50;;;9.00;99.90;;;;;;5094859;28;20020;-66
2024/01/28 00:29:08;;;;;;;6.60;5.93;;;8.90;99.90;;;;;;5094872;28;20089;-65
2024/01/28 00:31:34;;;;;;;6.50;5.90;;;8.90;99.90;;;;;;5094628;28;20020;-66
2024/01/28 00:34:01;;;;;;;6.13;5.60;;;9.10;99.90;;;;;;5094930;28;20043;-66
2024/01/28 00:36:26;;;;;;;7.03;5.90;;;9.30;99.90;;;;;;5094707;28;20017;-66
2024/01/28 00:38:53;;;;;;;5.88;5.38;;;9.40;99.90;;;;;;5094912;28;20028;-66
2024/01/28 00:41:28;;;;;;;6.93;5.47;;;9.60;99.90;;;;;;5094650;28;20040;-65
2024/01/28 00:43:54;;;;;;;7.03;5.68;;;9.60;99.90;;;;;;5094819;28;20390;-65
2024/01/28 00:46:21;;;;;;;6.22;5.18;;;9.70;99.90;;;;;;5094238;28;20573;-65
2024/01/28 00:48:48;;;;;;;5.40;4.90;;;9.70;99.90;;;;;;5094565;28;20024;-65
2024/01/28 00:51:13;;;;;;;5.80;5.30;;;9.80;99.90;;;;;;5094593;28;20469;-65
2024/01/28 00:53:39;;;;;;;6.05;5.45;;;9.60;99.90;;;;;;5094822;28;20107;-66
2024/01/28 00:56:05;;;;;;;7.13;5.20;;;9.40;99.90;;;;;;5094539;28;20032;-65
2024/01/28 00:58:31;;;;;;;5.90;5.30;;;9.30;99.90;;;;;;5094128;28;20032;-65
2024/01/28 01:00:56;;;;;;;5.80;5.20;;;9.30;99.90;;;;;;5093658;28;20039;-66
2024/01/28 01:03:22;;;;;;;5.57;5.07;;;9.20;99.90;;;;;;5094386;28;20032;-65
2024/01/28 01:05:48;;;;;;;5.57;5.07;;;9.30;99.90;;;;;;5094590;28;20028;-65
2024/01/28 01:08:13;;;;;;;6.20;5.07;;;9.20;99.90;;;;;;5094235;28;20429;-65
2024/01/28 01:10:41;;;;;;;5.75;5.28;;;9.20;99.90;;;;;;5094068;28;20040;-66
2024/01/28 01:13:06;;;;;;;7.55;5.53;;;9.20;99.90;;;;;;5094075;28;20051;-66
2024/01/28 01:15:32;;;;;;;6.30;5.47;;;9.20;99.90;;;;;;5093534;28;20062;-66
2024/01/28 01:17:58;;;;;;;6.10;5.60;;;9.20;99.90;;;;;;5093982;28;20048;-65
2024/01/28 01:20:24;;;;;;;6.40;5.20;;;9.20;99.90;;;;;;5093928;28;20042;-65
2024/01/28 01:22:49;;;;;;;5.85;5.35;;;9.10;99.90;;;;;;5093319;28;20401;-66
2024/01/28 01:25:15;;;;;;;6.15;5.07;;;9.10;99.90;;;;;;5093621;28;20034;-65
2024/01/28 01:27:41;;;;;;;5.30;4.82;;;9.10;99.90;;;;;;5093765;28;20107;-66
2024/01/28 01:30:08;;;;;;;6.07;5.13;;;9.00;99.90;;;;;;5093340;28;20016;-65
2024/01/28 01:32:37;;;;;;;5.60;5.10;;;9.10;99.90;;;;;;5094105;28;20027;-65
2024/01/28 01:35:03;;;;;;;5.78;5.00;;;9.00;99.90;;;;;;5093622;28;20107;-66
2024/01/28 01:37:28;;;;;;;5.80;5.00;;;9.00;99.90;;;;;;5093400;28;20028;-65
2024/01/28 01:39:54;;;;;;;5.25;4.80;;;9.00;99.90;;;;;;5093188;28;20036;-65
2024/01/28 01:42:20;;;;;;;5.07;4.68;;;9.00;99.90;;;;;;5093456;28;20028;-66
2024/01/28 01:44:45;;;;;;;5.85;4.85;;;8.90;99.90;;;;;;5093506;28;20161;-65
2024/01/28 01:47:12;;;;;;;5.55;4.97;;;8.90;99.90;;;;;;5093644;28;20070;-66
2024/01/28 01:49:37;;;;;;;5.32;4.82;;;8.80;99.90;;;;;;5093436;28;20028;-66
2024/01/28 01:52:04;;;;;;;5.20;4.78;;;8.80;99.90;;;;;;5093386;28;20032;-65
2024/01/28 01:54:30;;;;;;;4.97;4.47;;;8.80;99.90;;;;;;5093103;28;20053;-65
2024/01/28 01:56:56;;;;;;;5.65;5.15;;;8.80;99.90;;;;;;5092348;28;20028;-66
2024/01/28 01:59:22;;;;;;;5.20;4.57;;;8.80;99.90;;;;;;5111009;28;20028;-66
2024/01/28 02:01:48;;;;;;;5.20;4.70;;;8.70;99.90;;;;;;5113437;28;20027;-66
2024/01/28 02:04:14;;;;;;;4.70;4.30;;;8.70;99.90;;;;;;5113701;28;20390;-66
2024/01/28 02:06:40;;;;;;;5.90;5.10;;;8.70;99.90;;;;;;5111889;27;20030;-67
2024/01/28 02:09:06;;;;;;;5.00;4.50;;;8.70;99.90;;;;;;5093344;28;20062;-66
2024/01/28 02:11:33;;;;;;;5.28;4.78;;;8.60;99.90;;;;;;5092639;28;20490;-66
2024/01/28 02:13:59;;;;;;;5.22;4.70;;;8.70;99.90;;;;;;5092920;28;20028;-66
2024/01/28 02:16:25;;;;;;;6.70;4.78;;;8.60;99.90;;;;;;5092993;28;20375;-66
2024/01/28 02:18:51;;;;;;;5.35;4.85;;;8.60;99.90;;;;;;5092930;28;20031;-65
2024/01/28 02:21:17;;;;;;;5.05;4.57;;;8.60;99.90;;;;;;5092835;28;20028;-65
2024/01/28 02:23:42;;;;;;;5.60;4.22;;;8.70;99.90;;;;;;5092768;28;20102;-66
2024/01/28 02:26:08;;;;;;;4.85;4.30;;;8.90;99.90;;;;;;5092445;28;20034;-66
2024/01/28 02:28:34;;;;;;;4.68;4.28;;;9.10;99.90;;;;;;5092528;28;20032;-66
2024/01/28 02:30:59;;;;;;;5.15;4.30;;;9.10;99.90;;;;;;5092724;28;20024;-66
2024/01/28 02:33:25;;;;;;;4.30;3.90;;;9.30;99.90;;;;;;5091921;28;20036;-66
2024/01/28 02:35:51;;;;;;;5.82;4.22;;;9.30;99.90;;;;;;5092386;28;20054;-66
2024/01/28 02:38:16;;;;;;;5.53;3.90;;;9.30;99.90;;;;;;5091836;28;20028;-66
2024/01/28 02:40:43;;;;;;;4.93;4.00;;;9.40;99.90;;;;;;5091985;28;20052;-66
2024/01/28 02:43:10;;;;;;;6.47;4.38;;;9.30;99.90;;;;;;5092249;28;20546;-65
2024/01/28 02:45:35;;;;;;;4.95;4.38;;;9.20;99.90;;;;;;5092928;28;20401;-66
2024/01/28 02:48:01;;;;;;;4.63;4.10;;;9.00;99.90;;;;;;5091800;28;20024;-66
2024/01/28 02:50:26;;;;;;;4.47;4.03;;;8.90;99.90;;;;;;5092601;28;20054;-66
2024/01/28 02:52:52;;;;;;;5.18;4.00;;;8.80;99.90;;;;;;5092121;28;20059;-65
2024/01/28 02:55:18;;;;;;;5.45;4.47;;;8.70;99.90;;;;;;5092153;28;20055;-66
2024/01/28 02:57:43;;;;;;;4.10;3.70;;;8.60;99.90;;;;;;5091909;28;20048;-66
2024/01/28 03:00:09;;;;;;;4.65;3.70;;;8.60;99.90;;;;;;5091902;28;20036;-66
2024/01/28 03:02:37;;;;;;;7.25;3.97;;;8.60;99.90;;;;;;5092177;28;20035;-65
2024/01/28 03:05:03;;;;;;;4.30;3.90;;;8.60;99.90;;;;;;5092354;28;20542;-66
2024/01/28 03:07:29;;;;;;;4.78;3.67;;;8.60;99.90;;;;;;5092012;28;20095;-66
2024/01/28 03:09:55;;;;;;;4.30;3.90;;;8.60;99.90;;;;;;5091812;28;20429;-65
2024/01/28 03:12:20;;;;;;;4.25;3.70;;;8.50;99.90;;;;;;5092152;28;20024;-66
2024/01/28 03:14:46;;;;;;;4.95;3.78;;;8.60;99.90;;;;;;5091950;28;20024;-66
2024/01/28 03:17:11;;;;;;;5.70;3.80;;;8.50;99.90;;;;;;5092402;28;20028;-66
2024/01/28 03:19:37;;;;;;;5.53;3.70;;;8.50;99.90;;;;;;5091810;28;20402;-66
2024/01/28 03:22:03;;;;;;;4.68;3.75;;;8.50;99.90;;;;;;5091567;28;20438;-66
2024/01/28 03:24:29;;;;;;;3.60;3.30;;;8.40;99.90;;;;;;5091650;28;20035;-66
2024/01/28 03:26:54;;;;;;;5.57;4.15;;;8.40;99.90;;;;;;5092200;28;20032;-66
2024/01/28 03:29:20;;;;;;;4.28;3.28;;;8.40;99.90;;;;;;5091821;28;20494;-66
2024/01/28 03:31:46;;;;;;;3.78;3.40;;;8.50;99.90;;;;;;5091994;28;20059;-66
2024/01/28 03:34:12;;;;;;;5.45;3.45;;;8.40;99.90;;;;;;5091966;28;20056;-66
2024/01/28 03:36:37;;;;;;;5.20;3.45;;;8.40;99.90;;;;;;5091612;28;20047;-66
2024/01/28 03:39:04;;;;;;;5.40;3.53;;;8.40;99.90;;;;;;5091210;28;20044;-66
2024/01/28 03:41:30;;;;;;;3.50;3.20;;;8.40;99.90;;;;;;5091639;28;20512;-66
2024/01/28 03:43:56;;;;;;;4.70;3.40;;;8.50;99.90;;;;;;5091883;28;20486;-66
2024/01/28 03:46:22;;;;;;;5.18;3.63;;;8.50;99.90;;;;;;5094815;28;20095;-66
2024/01/28 03:48:47;;;;;;;5.07;3.30;;;8.50;99.90;;;;;;5095410;28;20059;-66
2024/01/28 03:51:13;;;;;;;3.20;2.90;;;8.50;99.90;;;;;;5098546;28;20063;-66
2024/01/28 03:53:39;;;;;;;4.25;3.13;;;8.40;99.90;;;;;;5115771;28;20111;-65
2024/01/28 03:56:06;;;;;;;4.75;3.10;;;8.40;99.90;;;;;;5116104;28;20026;-66
2024/01/28 03:58:32;;;;;;;4.00;3.30;;;8.40;99.90;;;;;;5100717;28;20020;-66
2024/01/28 04:00:58;;;;;;;6.13;3.38;;;8.40;99.90;;;;;;5095716;28;20137;-66
2024/01/28 04:03:23;;;;;;;5.13;3.22;;;8.40;99.90;;;;;;5095484;28;20017;-66
2024/01/28 04:05:49;;;;;;;5.53;3.17;;;8.40;99.90;;;;;;5095698;28;20055;-66
2024/01/28 04:08:14;;;;;;;6.32;3.20;;;8.40;99.90;;;;;;5094482;28;20052;-66
2024/01/28 04:10:40;;;;;;;4.25;3.10;;;8.40;99.90;;;;;;5095506;28;20115;-66
2024/01/28 04:13:06;;;;;;;3.78;3.17;;;8.40;99.90;;;;;;5095278;28;20039;-65
2024/01/28 04:15:31;;;;;;;5.00;3.10;;;8.40;99.90;;;;;;5095234;28;20024;-66
2024/01/28 04:17:57;;;;;;;3.72;2.65;;;8.50;99.90;;;;;;5095308;28;20024;-66
2024/01/28 04:20:23;;;;;;;3.30;2.92;;;8.70;99.90;;;;;;5095408;28;20085;-65
2024/01/28 04:22:49;;;;;;;4.18;3.10;;;8.80;99.90;;;;;;5094804;28;20386;-65
2024/01/28 04:25:18;;;;;;;3.30;3.00;;;8.90;99.90;;;;;;5094989;28;20035;-65
2024/01/28 04:27:44;;;;;;;3.63;2.83;;;9.00;99.90;;;;;;5094875;28;20445;-65
2024/01/28 04:30:10;;;;;;;3.67;3.00;;;9.10;99.90;;;;;;5095345;28;20024;-66
2024/01/28 04:32:35;;;;;;;4.03;2.83;;;9.00;99.90;;;;;;5093575;28;20123;-66
2024/01/28 04:35:01;;;;;;;3.95;3.33;;;9.00;99.90;;;;;;5094812;28;20081;-66
2024/01/28 04:37:27;;;;;;;3.75;2.70;;;8.90;99.90;;;;;;5094368;28;20020;-66
2024/01/28 04:39:56;;;;;;;3.88;2.55;;;8.80;99.90;;;;;;5094822;28;20486;-66
2024/01/28 04:42:22;;;;;;;4.43;2.78;;;8.70;99.90;;;;;;5094914;28;20058;-66
2024/01/28 04:44:48;;;;;;;4.45;2.85;;;8.50;99.90;;;;;;5095062;28;20058;-66
2024/01/28 04:47:14;;;;;;;4.25;2.95;;;8.40;99.90;;;;;;5094574;28;20066;-65
2024/01/28 04:49:40;;;;;;;3.33;2.90;;;8.40;99.90;;;;;;5094609;28;20405;-65
2024/01/28 04:52:05;;;;;;;3.45;2.83;;;8.30;99.90;;;;;;5094113;28;20028;-66
2024/01/28 04:54:31;;;;;;;3.10;2.80;;;8.20;99.90;;;;;;5094516;28;20428;-66
2024/01/28 04:56:57;;;;;;;3.42;2.90;;;8.30;99.90;;;;;;5092872;28;20020;-65
2024/01/28 04:59:24;;;;;;;4.30;2.83;;;8.20;99.90;;;;;;5094301;28;20032;-66
2024/01/28 05:01:50;;;;;;;5.35;2.90;;;8.20;99.90;;;;;;5094411;28;20028;-66
2024/01/28 05:04:16;;;;;;;4.05;2.55;;;8.20;99.90;;;;;;5094333;28;20035;-65
2024/01/28 05:06:41;;;;;;;3.85;3.20;;;8.10;99.90;;;;;;5094256;28;20028;-66
2024/01/28 05:09:09;;;;;;;4.53;3.47;;;8.20;99.90;;;;;;5094066;28;20024;-65
2024/01/28 05:11:35;;;;;;;5.40;3.95;;;8.10;99.90;;;;;;5094215;28;20024;-65
2024/01/28 05:14:00;;;;;;;6.25;3.80;;;8.20;99.90;;;;;;5092878;28;20039;-66
2024/01/28 05:16:27;;;;;;;5.22;3.80;;;8.20;99.90;;;;;;5094375;28;20482;-66
2024/01/28 05:18:53;;;;;;;3.78;3.45;;;8.10;99.90;;;;;;5093865;28;20039;-66
2024/01/28 05:21:19;;;;;;;3.22;2.92;;;8.10;99.90;;;;;;5093191;28;20035;-66
2024/01/28 05:23:46;;;;;;;5.28;3.30;;;8.10;99.90;;;;;;5093802;28;20386;-66
2024/01/28 05:26:12;;;;;;;6.53;3.72;;;8.10;99.90;;;;;;5094287;28;20024;-65
2024/01/28 05:28:38;;;;;;;5.75;3.70;;;8.10;99.90;;;;;;5093781;28;20020;-65
2024/01/28 05:31:04;;;;;;;5.68;3.65;;;8.00;99.90;;;;;;5093815;28;20047;-66
2024/01/28 05:33:33;;;;;;;4.25;3.40;;;8.00;99.90;;;;;;5093727;28;20478;-65
2024/01/28 05:36:00;;;;;;;3.45;3.10;;;8.00;99.90;;;;;;5093753;28;20036;-66
2024/01/28 05:38:26;;;;;;;4.30;3.35;;;8.00;99.90;;;;;;5092872;28;20024;-66
2024/01/28 05:40:52;;;;;;;5.80;3.50;;;8.00;99.90;;;;;;5093613;28;20541;-65
2024/01/28 05:43:17;;;;;;;4.03;3.22;;;7.90;99.90;;;;;;5093524;28;20158;-66
2024/01/28 05:45:43;;;;;;;3.92;3.00;;;7.90;99.90;;;;;;5093501;28;20028;-65
2024/01/28 05:48:09;;;;;;;4.70;3.45;;;7.90;99.90;;;;;;5093759;28;20028;-66
2024/01/28 05:50:34;;;;;;;4.38;3.60;;;7.90;99.90;;;;;;5092980;28;20116;-66
2024/01/28 05:53:00;;;;;;;5.25;3.85;;;7.80;99.90;;;;;;5093333;28;20150;-65
2024/01/28 05:55:26;;;;;;;5.15;4.07;;;7.90;99.90;;;;;;5093363;28;20127;-66
2024/01/28 05:57:53;;;;;;;4.95;3.95;;;7.80;99.90;;;;;;5093196;28;20020;-66
2024/01/28 06:00:19;;;;;;;4.28;3.67;;;7.80;99.90;;;;;;5102777;28;20120;-65
2024/01/28 06:02:45;;;;;;;3.88;3.53;;;7.80;99.90;;;;;;5113405;28;20104;-65
2024/01/28 06:05:11;;;;;;;5.50;3.72;;;7.70;99.90;;;;;;5113562;28;20032;-66
2024/01/28 06:07:37;;;;;;;4.18;3.70;;;7.70;99.90;;;;;;5107502;28;20016;-65
2024/01/28 06:10:02;;;;;;;6.15;3.35;;;7.70;99.90;;;;;;5092868;28;20097;-66
2024/01/28 06:12:28;;;;;;;6.53;3.55;;;7.80;99.90;;;;;;5093068;28;20016;-66
2024/01/28 06:14:54;;;;;;;4.03;3.33;;;8.00;99.90;;;;;;5092791;28;20077;-65
2024/01/28 06:17:19;;;;;;;4.60;4.10;;;8.20;99.90;;;;;;5092775;28;20028;-65
2024/01/28 06:19:45;;;;;;;5.97;3.78;;;8.30;99.90;;;;;;5092322;28;20032;-65
2024/01/28 06:22:11;;;;;;;6.07;3.97;;;8.40;99.90;;;;;;5092773;28;20059;-66
2024/01/28 06:24:40;;;;;;;7.03;3.63;;;8.30;99.90;;;;;;5092724;28;20108;-66
2024/01/28 06:27:06;;;;;;;5.22;3.70;;;8.40;99.90;;;;;;5092621;28;20546;-66
2024/01/28 06:29:32;;;;;;;5.50;3.10;;;8.50;99.90;;;;;;5092722;28;20036;-66
2024/01/28 06:31:57;;;;;;;4.50;3.45;;;8.50;99.90;;;;;;5093017;28;20077;-65
2024/01/28 06:34:23;;;;;;;3.80;3.40;;;8.40;99.90;;;;;;5092300;28;20020;-66
2024/01/28 06:36:50;;;;;;;4.68;3.42;;;8.20;99.90;;;;;;5092579;28;20221;-65
2024/01/28 06:39:15;;;;;;;3.53;3.22;;;8.10;99.90;;;;;;5092349;28;20028;-65
2024/01/28 06:41:43;;;;;;;3.78;3.10;;;8.00;99.90;;;;;;5092276;28;20553;-66
2024/01/28 06:44:09;;;;;;;5.15;3.33;;;8.00;99.90;;;;;;5092849;28;20375;-66
2024/01/28 06:46:34;;;;;;;5.25;3.55;;;7.90;99.90;;;;;;5092367;28;20058;-66
2024/01/28 06:49:01;;;;;;;3.70;3.38;;;7.80;99.90;;;;;;5090337;28;20039;-65
2024/01/28 06:51:28;;;;;;;5.97;3.35;;;7.80;99.90;;;;;;5092220;28;20032;-65
2024/01/28 06:53:53;;;;;;;4.35;3.05;;;7.80;99.90;;;;;;5092264;28;20422;-65
2024/01/28 06:56:19;;;;;;;4.88;3.13;;;7.70;99.90;;;;;;5092562;28;20108;-65
2024/01/28 06:58:45;;;;;;;4.45;3.30;;;7.70;99.90;;;;;;5092107;28;20134;-65
2024/01/28 07:01:11;;;;;;;6.28;3.78;;;7.80;99.90;;;;;;5092305;28;20028;-65
2024/01/28 07:03:36;;;;;;;7.80;4.57;;;7.70;99.90;;;;;;5091901;28;20086;-65
2024/01/28 07:06:03;;;;;;;8.65;4.45;;;7.70;99.90;;;;;;5092587;28;20055;-66
2024/01/28 07:08:28;;;;;;;5.80;4.25;;;7.70;99.90;;;;;;5090883;28;20024;-66
2024/01/28 07:10:54;;;;;;;5.13;4.22;;;7.70;99.90;;;;;;5092250;28;20082;-65
2024/01/28 07:13:19;;;;;;;5.50;4.20;;;7.60;99.90;;;;;;5092402;28;20039;-65
2024/01/28 07:15:45;;;;;;;6.18;4.22;;;7.60;99.90;;;;;;5091628;28;20055;-65
2024/01/28 07:18:11;;;;;;;4.90;4.20;;;7.60;99.90;;;;;;5092129;28;20040;-65
2024/01/28 07:20:36;;;;;;;6.53;4.40;;;7.60;99.90;;;;;;5093576;28;20063;-66
2024/01/28 07:23:02;;;;;;;5.20;4.70;;;7.60;99.90;;;;;;5096101;28;20020;-65
2024/01/28 07:25:28;;;;;;;5.38;4.57;;;7.60;99.90;;;;;;5096209;28;20028;-66
2024/01/28 07:27:54;;;;;;;5.50;4.60;;;7.50;99.90;;;;;;5095755;28;20103;-65
2024/01/28 07:30:19;;;;;;;4.90;4.40;;;7.50;99.90;;;;;;5095819;28;20028;-65
2024/01/28 07:32:45;;;;;;;6.25;4.88;;;7.50;99.90;;;;;;5096574;28;20020;-64
2024/01/28 07:35:11;;;;;;;6.47;4.35;;;7.50;99.90;;;;;;5096075;28;20024;-65
2024/01/28 07:37:36;;;;;;;6.35;3.70;;;7.50;99.90;;;;;;5093720;28;20016;-65
2024/01/28 07:40:04;;;;;;;5.95;3.92;;;7.50;99.90;;;;;;5095779;28;20039;-66
2024/01/28 07:42:29;;;;;;;4.15;3.45;;;7.50;99.90;;;;;;5095718;28;20047;-66
2024/01/28 07:44:55;;;;;;;6.90;3.90;;;7.50;99.90;;;;;;5095782;28;20571;-66
2024/01/28 07:47:20;;;;;;;3.33;2.80;;;7.50;99.90;;;;;;5095621;28;20062;-66
2024/01/28 07:49:46;;;;;;;3.70;3.20;;;7.60;99.90;;;;;;5094120;28;20016;-66
2024/01/28 07:52:12;;;;;;;4.72;3.72;;;7.60;99.90;;;;;;5088127;28;20033;-65
2024/01/28 07:54:37;;;;;;;4.90;3.53;;;7.80;99.90;;;;;;5095542;28;20063;-66
2024/01/28 07:57:03;;;;;;;3.60;3.30;;;7.70;99.90;;;;;;5088449;28;20046;-65
2024/01/28 07:59:28;;;;;;;5.20;3.20;;;7.80;99.90;;;;;;5081055;28;20442;-65
2024/01/28 08:01:54;;;;;;;3.63;3.10;;;7.70;99.90;;;;;;5074958;28;20024;-65
2024/01/28 08:04:20;;;;;;;4.57;2.92;;;7.80;99.90;;;;;;5074885;28;20522;-66
2024/01/28 08:06:45;;;;;;;3.33;2.40;;;7.80;99.90;;;;;;5092093;28;20486;-65
2024/01/28 08:09:11;;;;;;;2.65;2.45;;;8.00;99.90;;;;;;5095314;28;20019;-65
2024/01/28 08:11:37;;;;;;;3.95;2.63;;;8.20;99.90;;;;;;5095058;28;20458;-65
2024/01/28 08:14:02;;;;;;;4.20;2.80;;;8.40;99.90;;;;;;5094819;28;20028;-66
2024/01/28 08:16:29;;;;;;;4.38;2.50;;;8.50;99.90;;;;;;5095477;28;20035;-65
2024/01/28 08:18:57;;;;;;;4.05;2.50;;;8.70;99.90;;;;;;5094706;28;20020;-65
2024/01/28 08:21:22;;;;;;;4.18;2.38;;;8.90;99.90;;;;;;5095169;28;20067;-65
2024/01/28 08:23:48;;;;;;;3.67;2.58;;;8.90;99.90;;;;;;5095258;28;20447;-65
2024/01/28 08:26:15;;;;;;;4.05;2.22;;;8.90;99.90;;;;;;5094743;28;20115;-65
2024/01/28 08:28:41;;;;;;;3.78;2.30;;;8.90;99.90;;;;;;5094588;28;20111;-65
2024/01/28 08:31:07;;;;;;;3.05;2.28;;;8.80;99.90;;;;;;5094461;28;20032;-65
2024/01/28 08:33:33;;;;;;;3.00;2.05;;;8.70;99.90;;;;;;5095120;28;20012;-65
2024/01/28 08:35:58;;;;;;;3.72;2.17;;;8.70;99.90;;;;;;5094274;28;20032;-65
2024/01/28 08:38:24;;;;;;;5.45;2.20;;;8.70;99.90;;;;;;5092999;28;20108;-65
2024/01/28 08:40:49;;;;;;;2.53;2.30;;;8.70;99.90;;;;;;5073562;28;20229;-66
2024/01/28 08:43:15;;;;;;;3.25;2.38;;;8.60;99.90;;;;;;5074109;28;20547;-65
2024/01/28 08:45:42;;;;;;;3.47;2.33;;;8.60;99.90;;;;;;5073292;28;20134;-65
2024/01/28 08:48:07;;;;;;;3.22;2.50;;;8.70;99.90;;;;;;5081360;28;20031;-66
2024/01/28 08:50:33;;;;;;;7.00;2.80;;;8.70;99.90;;;;;;5094508;28;20028;-65
2024/01/28 08:52:59;;;;;;;5.28;2.50;;;8.80;99.90;;;;;;5093959;28;20020;-65
2024/01/28 08:55:24;;;;;;;4.07;2.40;;;8.90;99.90;;;;;;5094280;28;20120;-65
2024/01/28 08:57:50;;;;;;;3.58;2.47;;;8.90;99.90;;;;;;5094203;28;20024;-65
2024/01/28 09:00:16;;;;;;;4.28;2.00;;;8.90;99.90;;;;;;5094220;28;20047;-65
2024/01/28 09:02:41;;;;;;;3.72;2.45;;;8.90;99.90;;;;;;5094220;28;20020;-65
2024/01/28 09:05:08;;;;;;;3.25;2.65;;;9.00;99.90;;;;;;5093893;28;20448;-65
2024/01/28 09:07:34;;;;;;;4.72;2.67;;;9.00;99.90;;;;;;5093978;28;20016;-66
2024/01/28 09:10:00;;;;;;;4.57;2.50;;;9.10;99.90;;;;;;5094338;28;20289;-66
2024/01/28 09:12:26;;;;;;;5.05;2.50;;;9.10;99.90;;;;;;5093866;28;20023;-65
2024/01/28 09:14:52;;;;;;;4.35;2.72;;;9.20;99.90;;;;;;5094341;28;20031;-66
2024/01/28 09:17:18;;;;;;;6.57;2.80;;;9.30;99.90;;;;;;5093800;28;20449;-66
2024/01/28 09:19:43;;;;;;;5.93;2.70;;;9.40;99.90;;;;;;5093757;28;20111;-65
2024/01/28 09:22:09;;;;;;;5.05;2.60;;;9.50;99.90;;;;;;5093969;28;20386;-65
2024/01/28 09:24:35;;;;;;;3.25;2.47;;;9.50;99.90;;;;;;5093661;28;20101;-66
2024/01/28 09:27:01;;;;;;;3.63;2.20;;;9.70;99.90;;;;;;5092214;28;20047;-65
2024/01/28 09:29:28;;;;;;;4.45;2.67;;;9.70;99.90;;;;;;5091487;28;20025;-67
2024/01/28 09:31:56;;;;;;;4.32;2.40;;;9.80;99.90;;;;;;5092063;28;20039;-66
2024/01/28 09:34:23;;;;;;;4.03;2.53;;;9.90;99.90;;;;;;5079720;28;20025;-65
2024/01/28 09:36:49;;;;;;;2.58;2.30;;;10.00;99.90;;;;;;5078547;28;20374;-66
2024/01/28 09:39:15;;;;;;;3.53;2.22;;;10.00;99.90;;;;;;5084623;28;20166;-66
2024/01/28 09:42:02;;;;;;;2.10;1.90;;;10.10;99.90;;;;;;5091370;28;20055;-65
2024/01/28 09:44:28;;;;;;;4.10;2.15;;;10.20;99.90;;;;;;5092159;28;20055;-66
2024/01/28 09:46:54;;;;;;;2.50;2.13;;;10.30;99.90;;;;;;5073155;28;20048;-66
2024/01/28 09:49:21;;;;;;;2.97;2.10;;;10.30;99.90;;;;;;5083828;28;20933;-66
2024/01/28 09:51:46;;;;;;;8.50;2.63;;;10.40;99.90;;;;;;5076368;28;20040;-66
2024/01/28 09:54:12;;;;;;;5.65;2.10;;;10.50;99.90;;;;;;5093542;28;20477;-66
2024/01/28 09:56:41;;;;;;;2.13;1.70;;;10.70;99.90;;;;;;5079302;28;20020;-66
2024/01/28 09:59:08;;;;;;;2.45;1.75;;;10.70;99.90;;;;;;5087233;28;20027;-66
2024/01/28 10:01:34;;;;;;;2.38;1.75;;;10.80;99.90;;;;;;5085713;28;20166;-66
2024/01/28 10:04:01;;;;;;;1.90;1.70;;;11.10;99.90;;;;;;5095089;28;20107;-66
2024/01/28 10:06:27;;;;;;;4.03;2.17;;;11.20;99.90;;;;;;5090632;28;20038;-66
2024/01/28 10:08:52;;;;;;;3.95;1.88;;;11.40;99.90;;;;;;5092701;28;20020;-66
2024/01/28 10:11:18;;;;;;;3.88;2.00;;;11.50;99.90;;;;;;5092899;28;20097;-65
2024/01/28 10:13:45;;;;;;;1.88;1.70;;;11.50;99.90;;;;;;5092858;28;20020;-65
2024/01/28 10:16:11;;;;;;;2.03;1.80;;;11.60;99.90;;;;;;5093095;28;20024;-66
2024/01/28 10:18:37;;;;;;;3.38;1.98;;;11.70;99.90;;;;;;5092457;28;20020;-66
2024/01/28 10:21:02;;;;;;;2.58;1.83;;;11.80;99.90;;;;;;5092680;28;20024;-65
2024/01/28 10:23:28;;;;;;;3.05;1.90;;;11.80;99.90;;;;;;5089363;28;20043;-65
2024/01/28 10:26:05;;;;;;;2.33;1.63;;;11.70;99.90;;;;;;5072261;28;20036;-66
2024/01/28 10:28:31;;;;;;;2.95;1.73;;;11.70;99.90;;;;;;5080835;28;20024;-66
2024/01/28 10:30:57;;;;;;;1.92;1.67;;;11.60;99.90;;;;;;5093113;28;20027;-65
2024/01/28 10:33:23;;;;;;;3.20;1.98;;;11.60;99.90;;;;;;5092666;28;20028;-66
2024/01/28 10:35:48;;;;;;;2.13;1.80;;;11.70;99.90;;;;;;5092436;28;20024;-65
2024/01/28 10:38:20;;;;;;;2.47;1.90;;;11.70;99.90;;;;;;5092215;28;20035;-66
2024/01/28 10:40:49;;;;;;;2.53;1.90;;;11.70;99.90;;;;;;5092021;28;20055;-66
2024/01/28 10:43:16;;;;;;;3.70;2.00;;;11.80;99.90;;;;;;5092470;28;20020;-66
2024/01/28 10:45:45;;;;;;;3.47;2.15;;;11.80;99.90;;;;;;5092476;28;20040;-65
2024/01/28 10:48:18;;;;;;;3.30;2.00;;;11.90;99.90;;;;;;5085489;28;20490;-66
2024/01/28 10:50:44;;;;;;;3.50;2.13;;;12.00;99.90;;;;;;5092079;28;20032;-66
2024/01/28 10:53:12;;;;;;;3.45;2.00;;;12.10;99.90;;;;;;5091991;28;20031;-65
2024/01/28 10:55:39;;;;;;;9.35;3.00;;;12.10;99.90;;;;;;5091961;28;20027;-66
2024/01/28 10:58:05;;;;;;;6.35;2.65;;;12.50;99.90;;;;;;5092016;28;20099;-66
2024/01/28 11:00:31;;;;;;;5.18;2.33;;;12.50;99.90;;;;;;5091936;28;20127;-66
2024/01/28 11:02:59;;;;;;;3.70;2.20;;;12.50;99.90;;;;;;5092280;28;20043;-65
2024/01/28 11:05:28;;;;;;;5.82;2.22;;;12.40;99.90;;;;;;5091862;28;20039;-66
2024/01/28 11:07:59;;;;;;;2.78;1.90;;;12.60;99.90;;;;;;5091655;28;20008;-66
2024/01/28 11:10:30;;;;;;;3.97;2.05;;;12.60;99.90;;;;;;5092009;28;20034;-66
2024/01/28 11:12:56;;;;;;;2.58;2.25;;;12.60;99.90;;;;;;5090814;28;20032;-66
2024/01/28 11:15:23;;;;;;;2.42;2.03;;;12.60;99.90;;;;;;5092413;28;20031;-66
2024/01/28 11:17:50;;;;;;;2.83;2.30;;;12.60;99.90;;;;;;5091782;28;20059;-66
2024/01/28 11:20:27;;;;;;;3.03;1.98;;;12.70;99.90;;;;;;5091912;28;20040;-66
2024/01/28 11:22:58;;;;;;;2.90;2.35;;;12.70;99.90;;;;;;5092131;28;20385;-66
2024/01/28 11:25:28;;;;;;;4.50;2.92;;;12.80;99.90;;;;;;5091901;28;20028;-66
2024/01/28 11:28:02;;;;;;;3.25;2.88;;;12.80;99.90;;;;;;5091573;28;20024;-67
2024/01/28 11:30:28;;;;;;;3.72;2.60;;;13.00;99.90;;;;;;5091345;28;20099;-67
2024/01/28 11:33:09;;;;;;;3.03;2.42;;;13.00;99.90;;;;;;5092260;28;20493;-67
2024/01/28 11:35:35;;;;;;;6.10;2.50;;;13.10;99.90;;;;;;5091817;28;20413;-68
2024/01/28 11:38:06;;;;;;;14.30;3.42;;;13.10;99.90;;;;;;5077910;28;20032;-67
2024/01/28 11:40:37;;;;;;;10.35;2.60;;;13.30;99.90;;;;;;5072412;28;20052;-67
2024/01/28 11:43:06;;;;;;;7.22;2.50;;;13.50;99.90;;;;;;5091395;28;20028;-67
2024/01/28 11:45:32;;;;;;;3.70;2.22;;;13.70;99.90;;;;;;5090302;28;20028;-66
2024/01/28 11:47:58;;;;;;;3.50;2.20;;;13.90;99.90;;;;;;5091949;28;20028;-67
2024/01/28 11:50:24;;;;;;;4.22;2.13;;;14.00;99.90;;;;;;5091463;28;20051;-67
2024/01/28 11:52:50;;;;;;;2.50;2.30;;;14.10;99.90;;;;;;5091077;28;20050;-67
2024/01/28 11:55:19;;;;;;;2.72;2.00;;;14.10;99.90;;;;;;5091474;28;20095;-67
2024/01/28 11:57:46;;;;;;;2.47;2.10;;;14.20;99.90;;;;;;5091509;28;20024;-68
2024/01/28 12:00:13;;;;;;;2.38;2.17;;;14.20;99.90;;;;;;5091496;28;20032;-67
2024/01/28 12:02:40;;;;;;;2.22;2.03;;;14.30;99.90;;;;;;5091643;28;20028;-67
2024/01/28 12:05:07;;;;;;;2.70;2.20;;;14.30;99.90;;;;;;5091568;28;20024;-68
2024/01/28 12:07:41;;;;;;;3.08;2.38;;;14.30;99.90;;;;;;5094569;28;20099;-67
2024/01/28 12:10:12;;;;;;;5.90;2.38;;;14.20;99.90;;;;;;5095363;28;20127;-67
2024/01/28 12:12:40;;;;;;;4.85;2.50;;;14.10;99.90;;;;;;5095439;28;20021;-67
2024/01/28 12:15:07;;;;;;;2.63;2.22;;;14.00;99.90;;;;;;5093889;28;20031;-67
2024/01/28 12:17:37;;;;;;;3.28;2.10;;;14.00;99.90;;;;;;5095147;28;20049;-67
2024/01/28 12:20:04;;;;;;;2.85;2.40;;;14.00;99.90;;;;;;5094990;28;20128;-67
2024/01/28 12:22:37;;;;;;;2.90;2.22;;;14.00;99.90;;;;;;5094931;28;20028;-67
2024/01/28 12:25:22;;;;;;;2.88;2.60;;;14.00;99.90;;;;;;5088753;28;20036;-67
2024/01/28 12:27:49;;;;;;;3.03;2.72;;;14.00;99.90;;;;;;5079161;28;20065;-66
2024/01/28 12:30:15;;;;;;;3.00;2.22;;;14.00;99.90;;;;;;5094882;28;20031;-67
2024/01/28 12:32:41;;;;;;;3.08;2.60;;;14.00;99.90;;;;;;5084703;28;20027;-67
2024/01/28 12:35:09;;;;;;;3.70;3.30;;;14.00;99.90;;;;;;5076774;28;20406;-67
2024/01/28 12:37:35;;;;;;;4.20;3.40;;;14.10;99.90;;;;;;5088632;28;20379;-67
2024/01/28 12:40:01;;;;;;;5.47;3.00;;;14.10;99.90;;;;;;5093995;28;20062;-67
2024/01/28 12:42:27;;;;;;;3.67;2.95;;;14.10;99.90;;;;;;5093379;28;20027;-67
2024/01/28 12:44:53;;;;;;;4.50;3.00;;;14.20;99.90;;;;;;5094846;28;20443;-67
2024/01/28 12:47:19;;;;;;;5.18;2.90;;;14.30;99.90;;;;;;5094092;28;20063;-67
2024/01/28 12:49:44;;;;;;;6.85;2.83;;;14.30;99.90;;;;;;5094045;28;20103;-67
2024/01/28 12:52:10;;;;;;;2.53;2.10;;;14.40;99.90;;;;;;5094902;28;20031;-67